sensor_id;sensor_type;location;lat;lon;timestamp;P1;durP1;ratioP1;P2;durP2;ratioP2
5827;SDS011;42583;50.240;8.444;2022-07-29T00:11:00;8.45;;;2.08;;
5827;SDS011;42583;50.240;8.444;2022-07-29T00:26:01;8.45;;;2.60;;
5827;SDS011;42583;50.240;8.444;2022-07-29T00:41:02;6.07;;;2.30;;
5827;SDS011;42583;50.240;8.444;2022-07-29T00:56:03;5.90;;;2.60;;
5827;SDS011;42583;50.240;8.444;2022-07-29T01:11:04;4.05;;;2.28;;
5827;SDS011;42583;50.240;8.444;2022-07-29T01:26:13;5.70;;;2.50;;
5827;SDS011;42583;50.240;8.444;2022-07-29T01:41:34;4.28;;;2.30;;
5827;SDS011;42583;50.240;8.444;2022-07-29T01:56:38;5.32;;;2.30;;
5827;SDS011;42583;50.240;8.444;2022-07-29T02:11:39;6.35;;;2.42;;
5827;SDS011;42583;50.240;8.444;2022-07-29T02:26:42;3.88;;;1.95;;
5827;SDS011;42583;50.240;8.444;2022-07-29T02:41:45;6.30;;;2.40;;
5827;SDS011;42583;50.240;8.444;2022-07-29T02:56:48;6.63;;;2.45;;
5827;SDS011;42583;50.240;8.444;2022-07-29T03:11:52;7.43;;;2.58;;
5827;SDS011;42583;50.240;8.444;2022-07-29T03:26:55;7.07;;;2.58;;
5827;SDS011;42583;50.240;8.444;2022-07-29T03:41:56;6.90;;;2.60;;
5827;SDS011;42583;50.240;8.444;2022-07-29T03:56:59;4.97;;;2.50;;
5827;SDS011;42583;50.240;8.444;2022-07-29T04:12:01;4.03;;;2.28;;
5827;SDS011;42583;50.240;8.444;2022-07-29T04:27:02;8.38;;;2.70;;
5827;SDS011;42583;50.240;8.444;2022-07-29T04:42:03;4.57;;;2.20;;
5827;SDS011;42583;50.240;8.444;2022-07-29T04:57:04;8.68;;;2.08;;
5827;SDS011;42583;50.240;8.444;2022-07-29T05:12:04;5.63;;;2.00;;
5827;SDS011;42583;50.240;8.444;2022-07-29T05:27:05;5.97;;;1.88;;
5827;SDS011;42583;50.240;8.444;2022-07-29T05:42:09;7.10;;;2.22;;
5827;SDS011;42583;50.240;8.444;2022-07-29T07:12:22;3.42;;;2.00;;
5827;SDS011;42583;50.240;8.444;2022-07-29T07:27:23;7.25;;;2.10;;
5827;SDS011;42583;50.240;8.444;2022-07-29T07:42:23;5.43;;;1.67;;
5827;SDS011;42583;50.240;8.444;2022-07-29T07:57:24;4.35;;;2.00;;
5827;SDS011;42583;50.240;8.444;2022-07-29T08:12:25;7.13;;;1.92;;
5827;SDS011;42583;50.240;8.444;2022-07-29T08:27:25;4.78;;;1.77;;
5827;SDS011;42583;50.240;8.444;2022-07-29T08:42:28;6.53;;;1.95;;
5827;SDS011;42583;50.240;8.444;2022-07-29T08:57:29;5.43;;;1.85;;
5827;SDS011;42583;50.240;8.444;2022-07-29T09:27:31;3.55;;;1.77;;
5827;SDS011;42583;50.240;8.444;2022-07-29T09:42:31;4.30;;;1.85;;
5827;SDS011;42583;50.240;8.444;2022-07-29T09:57:33;4.75;;;1.80;;
5827;SDS011;42583;50.240;8.444;2022-07-29T10:12:34;5.28;;;1.95;;
5827;SDS011;42583;50.240;8.444;2022-07-29T10:27:52;4.90;;;1.98;;
5827;SDS011;42583;50.240;8.444;2022-07-29T10:42:53;9.43;;;1.67;;
5827;SDS011;42583;50.240;8.444;2022-07-29T11:28:50;5.70;;;2.20;;
5827;SDS011;42583;50.240;8.444;2022-07-29T11:43:55;6.53;;;2.05;;
5827;SDS011;42583;50.240;8.444;2022-07-29T11:59:04;9.10;;;2.40;;
5827;SDS011;42583;50.240;8.444;2022-07-29T12:14:06;5.28;;;2.40;;
5827;SDS011;42583;50.240;8.444;2022-07-29T12:29:06;8.57;;;2.13;;
5827;SDS011;42583;50.240;8.444;2022-07-29T12:44:08;5.38;;;3.33;;
5827;SDS011;42583;50.240;8.444;2022-07-29T13:14:14;5.45;;;2.45;;
5827;SDS011;42583;50.240;8.444;2022-07-29T13:29:29;6.25;;;3.33;;
5827;SDS011;42583;50.240;8.444;2022-07-29T13:44:30;5.53;;;2.47;;
5827;SDS011;42583;50.240;8.444;2022-07-29T13:59:31;5.28;;;2.50;;
5827;SDS011;42583;50.240;8.444;2022-07-29T14:14:31;9.53;;;3.30;;
5827;SDS011;42583;50.240;8.444;2022-07-29T14:29:32;6.85;;;3.72;;
5827;SDS011;42583;50.240;8.444;2022-07-29T14:44:33;6.45;;;2.60;;
5827;SDS011;42583;50.240;8.444;2022-07-29T14:59:33;2.20;;;1.30;;
5827;SDS011;42583;50.240;8.444;2022-07-29T15:14:34;2.30;;;1.20;;
5827;SDS011;42583;50.240;8.444;2022-07-29T15:29:35;2.63;;;1.40;;
5827;SDS011;42583;50.240;8.444;2022-07-29T15:44:36;1.95;;;1.30;;
5827;SDS011;42583;50.240;8.444;2022-07-29T15:59:36;3.13;;;1.30;;
5827;SDS011;42583;50.240;8.444;2022-07-29T16:14:37;2.05;;;1.20;;
5827;SDS011;42583;50.240;8.444;2022-07-29T16:29:37;2.88;;;1.35;;
5827;SDS011;42583;50.240;8.444;2022-07-29T16:44:38;3.10;;;1.70;;
5827;SDS011;42583;50.240;8.444;2022-07-29T16:59:39;2.65;;;1.52;;
5827;SDS011;42583;50.240;8.444;2022-07-29T17:14:40;3.17;;;2.10;;
5827;SDS011;42583;50.240;8.444;2022-07-29T17:29:40;3.60;;;1.95;;
5827;SDS011;42583;50.240;8.444;2022-07-29T17:44:41;5.53;;;2.70;;
5827;SDS011;42583;50.240;8.444;2022-07-29T17:59:42;5.05;;;2.67;;
5827;SDS011;42583;50.240;8.444;2022-07-29T18:14:42;6.22;;;2.83;;
5827;SDS011;42583;50.240;8.444;2022-07-29T18:29:43;4.53;;;2.60;;
5827;SDS011;42583;50.240;8.444;2022-07-29T18:44:43;7.13;;;3.70;;
5827;SDS011;42583;50.240;8.444;2022-07-29T18:59:44;6.45;;;4.45;;
5827;SDS011;42583;50.240;8.444;2022-07-29T19:14:45;7.75;;;3.40;;
5827;SDS011;42583;50.240;8.444;2022-07-29T19:29:45;6.30;;;3.30;;
5827;SDS011;42583;50.240;8.444;2022-07-29T19:44:46;9.13;;;4.03;;
5827;SDS011;42583;50.240;8.444;2022-07-29T19:59:46;6.70;;;3.78;;
5827;SDS011;42583;50.240;8.444;2022-07-29T20:14:48;6.90;;;3.53;;
5827;SDS011;42583;50.240;8.444;2022-07-29T20:29:49;7.43;;;3.67;;
5827;SDS011;42583;50.240;8.444;2022-07-29T20:44:50;6.55;;;3.83;;
5827;SDS011;42583;50.240;8.444;2022-07-29T20:59:52;6.93;;;4.10;;
5827;SDS011;42583;50.240;8.444;2022-07-29T21:14:53;7.38;;;4.97;;
5827;SDS011;42583;50.240;8.444;2022-07-29T21:29:53;9.40;;;5.22;;
5827;SDS011;42583;50.240;8.444;2022-07-29T21:44:54;5.93;;;4.07;;
5827;SDS011;42583;50.240;8.444;2022-07-29T21:59:54;5.47;;;3.42;;
5827;SDS011;42583;50.240;8.444;2022-07-29T22:14:55;5.78;;;3.30;;
5827;SDS011;42583;50.240;8.444;2022-07-29T22:29:55;8.77;;;3.30;;
5827;SDS011;42583;50.240;8.444;2022-07-29T22:44:56;4.90;;;2.80;;
5827;SDS011;42583;50.240;8.444;2022-07-29T22:59:56;4.10;;;2.42;;
5827;SDS011;42583;50.240;8.444;2022-07-29T23:30:01;3.92;;;2.80;;
5827;SDS011;42583;50.240;8.444;2022-07-29T23:45:02;6.93;;;3.28;;
